Troy, Missouri
Current Conditions -  °F | °C
As of 5:55 PM on Wednesday 22 Oct 2014 (Local Time) from KFYG Reporting Station
Clear Clear  
Wind Chill: 63°   Ceiling: Unl
Heat Index: 63°   Visibility: 10mi
Dew Point: 41°   Wind: 8mph
Humidity: 45%   Direction: 120°ESE
Pressure: 30.18"   Gusts: NA
Location:  38.98°N, 90.98°W
Report Text: KFYG 222255Z AUTO 12007KT 10SM CLR 17/05 A3018 RMK AO2
Loading
Personal Weather Stations






























Interactive Weather Map
Tropical Storm Tracking
New forecast layout! Learn more

10-Day Weather Forecast

Advertisements
Track Severe Weather on mobile